sensor_id;sensor_type;location;lat;lon;timestamp;P1;durP1;ratioP1;P2;durP2;ratioP2
35745;SDS011;21870;42.812;74.628;2024-01-07T00:02:03;8.85;;;4.53;;
35745;SDS011;21870;42.812;74.628;2024-01-07T00:04:29;15.23;;;4.90;;
35745;SDS011;21870;42.812;74.628;2024-01-07T00:06:55;17.13;;;4.68;;
35745;SDS011;21870;42.812;74.628;2024-01-07T00:09:21;9.38;;;4.43;;
35745;SDS011;21870;42.812;74.628;2024-01-07T00:11:47;9.45;;;4.63;;
35745;SDS011;21870;42.812;74.628;2024-01-07T00:14:15;10.52;;;4.50;;
35745;SDS011;21870;42.812;74.628;2024-01-07T00:16:42;12.27;;;4.60;;
35745;SDS011;21870;42.812;74.628;2024-01-07T00:19:11;11.38;;;4.78;;
35745;SDS011;21870;42.812;74.628;2024-01-07T00:21:37;12.07;;;5.45;;
35745;SDS011;21870;42.812;74.628;2024-01-07T00:24:03;11.48;;;4.60;;
35745;SDS011;21870;42.812;74.628;2024-01-07T00:26:29;8.00;;;4.45;;
35745;SDS011;21870;42.812;74.628;2024-01-07T00:28:55;13.70;;;4.40;;
35745;SDS011;21870;42.812;74.628;2024-01-07T00:31:21;11.13;;;4.50;;
35745;SDS011;21870;42.812;74.628;2024-01-07T00:33:47;13.55;;;5.03;;
35745;SDS011;21870;42.812;74.628;2024-01-07T00:36:13;16.75;;;5.32;;
35745;SDS011;21870;42.812;74.628;2024-01-07T00:38:39;16.73;;;5.97;;
35745;SDS011;21870;42.812;74.628;2024-01-07T00:41:05;16.90;;;6.85;;
35745;SDS011;21870;42.812;74.628;2024-01-07T00:43:34;17.75;;;7.47;;
35745;SDS011;21870;42.812;74.628;2024-01-07T00:46:00;17.02;;;9.63;;
35745;SDS011;21870;42.812;74.628;2024-01-07T00:48:26;13.93;;;8.60;;
35745;SDS011;21870;42.812;74.628;2024-01-07T00:50:52;16.88;;;7.80;;
35745;SDS011;21870;42.812;74.628;2024-01-07T00:53:18;17.45;;;7.03;;
35745;SDS011;21870;42.812;74.628;2024-01-07T00:55:44;10.45;;;5.72;;
35745;SDS011;21870;42.812;74.628;2024-01-07T00:58:10;13.15;;;6.65;;
35745;SDS011;21870;42.812;74.628;2024-01-07T01:00:36;11.35;;;6.85;;
35745;SDS011;21870;42.812;74.628;2024-01-07T01:03:03;13.85;;;6.25;;
35745;SDS011;21870;42.812;74.628;2024-01-07T01:05:29;12.18;;;6.40;;
35745;SDS011;21870;42.812;74.628;2024-01-07T01:07:55;9.70;;;5.70;;
35745;SDS011;21870;42.812;74.628;2024-01-07T01:10:21;15.68;;;6.53;;
35745;SDS011;21870;42.812;74.628;2024-01-07T01:12:47;15.07;;;5.85;;
35745;SDS011;21870;42.812;74.628;2024-01-07T01:15:13;11.27;;;6.57;;
35745;SDS011;21870;42.812;74.628;2024-01-07T01:17:42;13.10;;;6.05;;
35745;SDS011;21870;42.812;74.628;2024-01-07T01:20:08;12.45;;;8.13;;
35745;SDS011;21870;42.812;74.628;2024-01-07T01:22:34;7.35;;;5.68;;
35745;SDS011;21870;42.812;74.628;2024-01-07T01:25:00;10.20;;;5.32;;
35745;SDS011;21870;42.812;74.628;2024-01-07T01:27:27;17.25;;;5.82;;
35745;SDS011;21870;42.812;74.628;2024-01-07T01:29:53;9.85;;;5.28;;
35745;SDS011;21870;42.812;74.628;2024-01-07T01:32:19;11.57;;;4.85;;
35745;SDS011;21870;42.812;74.628;2024-01-07T01:34:45;14.35;;;5.22;;
35745;SDS011;21870;42.812;74.628;2024-01-07T01:37:11;11.68;;;5.03;;
35745;SDS011;21870;42.812;74.628;2024-01-07T01:39:40;10.73;;;5.00;;
35745;SDS011;21870;42.812;74.628;2024-01-07T01:42:07;10.20;;;4.45;;
35745;SDS011;21870;42.812;74.628;2024-01-07T01:44:33;10.05;;;5.07;;
35745;SDS011;21870;42.812;74.628;2024-01-07T01:46:59;9.27;;;4.90;;
35745;SDS011;21870;42.812;74.628;2024-01-07T01:49:27;8.73;;;5.10;;
35745;SDS011;21870;42.812;74.628;2024-01-07T01:51:56;14.80;;;6.07;;
35745;SDS011;21870;42.812;74.628;2024-01-07T01:54:22;10.18;;;5.22;;
35745;SDS011;21870;42.812;74.628;2024-01-07T01:56:48;14.00;;;5.07;;
35745;SDS011;21870;42.812;74.628;2024-01-07T01:59:15;14.02;;;4.97;;
35745;SDS011;21870;42.812;74.628;2024-01-07T02:01:41;15.23;;;5.35;;
35745;SDS011;21870;42.812;74.628;2024-01-07T02:04:08;13.27;;;6.10;;
35745;SDS011;21870;42.812;74.628;2024-01-07T02:06:34;15.15;;;5.85;;
35745;SDS011;21870;42.812;74.628;2024-01-07T02:09:01;9.45;;;5.05;;
35745;SDS011;21870;42.812;74.628;2024-01-07T02:11:28;17.55;;;6.18;;
35745;SDS011;21870;42.812;74.628;2024-01-07T02:13:54;18.75;;;6.10;;
35745;SDS011;21870;42.812;74.628;2024-01-07T02:16:20;22.92;;;7.38;;
35745;SDS011;21870;42.812;74.628;2024-01-07T02:18:46;12.35;;;6.80;;
35745;SDS011;21870;42.812;74.628;2024-01-07T02:21:13;18.20;;;9.02;;
35745;SDS011;21870;42.812;74.628;2024-01-07T02:23:40;15.82;;;6.90;;
35745;SDS011;21870;42.812;74.628;2024-01-07T02:26:06;17.02;;;7.65;;
35745;SDS011;21870;42.812;74.628;2024-01-07T02:28:32;16.52;;;7.22;;
35745;SDS011;21870;42.812;74.628;2024-01-07T02:30:59;13.95;;;6.93;;
35745;SDS011;21870;42.812;74.628;2024-01-07T02:33:25;13.18;;;7.88;;
35745;SDS011;21870;42.812;74.628;2024-01-07T02:35:51;19.58;;;8.65;;
35745;SDS011;21870;42.812;74.628;2024-01-07T02:38:17;18.80;;;11.00;;
35745;SDS011;21870;42.812;74.628;2024-01-07T02:40:43;20.77;;;11.23;;
35745;SDS011;21870;42.812;74.628;2024-01-07T02:43:09;24.02;;;11.48;;
35745;SDS011;21870;42.812;74.628;2024-01-07T02:45:35;18.88;;;9.85;;
35745;SDS011;21870;42.812;74.628;2024-01-07T02:48:01;19.40;;;10.75;;
35745;SDS011;21870;42.812;74.628;2024-01-07T02:50:27;18.25;;;9.38;;
35745;SDS011;21870;42.812;74.628;2024-01-07T02:52:53;22.13;;;9.30;;
35745;SDS011;21870;42.812;74.628;2024-01-07T02:55:20;18.10;;;7.90;;
35745;SDS011;21870;42.812;74.628;2024-01-07T02:57:46;17.27;;;9.10;;
35745;SDS011;21870;42.812;74.628;2024-01-07T03:00:12;16.90;;;8.75;;
35745;SDS011;21870;42.812;74.628;2024-01-07T03:02:38;18.55;;;9.80;;
35745;SDS011;21870;42.812;74.628;2024-01-07T03:05:04;14.23;;;8.20;;
35745;SDS011;21870;42.812;74.628;2024-01-07T03:07:31;21.60;;;8.77;;
35745;SDS011;21870;42.812;74.628;2024-01-07T03:09:57;18.75;;;9.23;;
35745;SDS011;21870;42.812;74.628;2024-01-07T03:12:23;14.40;;;7.60;;
35745;SDS011;21870;42.812;74.628;2024-01-07T03:14:52;15.68;;;8.75;;
35745;SDS011;21870;42.812;74.628;2024-01-07T03:17:21;13.95;;;7.82;;
35745;SDS011;21870;42.812;74.628;2024-01-07T03:19:47;16.80;;;6.70;;
35745;SDS011;21870;42.812;74.628;2024-01-07T03:22:13;16.35;;;8.82;;
35745;SDS011;21870;42.812;74.628;2024-01-07T03:24:41;15.50;;;8.25;;
35745;SDS011;21870;42.812;74.628;2024-01-07T03:27:07;16.83;;;8.45;;
35745;SDS011;21870;42.812;74.628;2024-01-07T03:29:33;10.38;;;5.50;;
35745;SDS011;21870;42.812;74.628;2024-01-07T03:32:01;12.07;;;5.53;;
35745;SDS011;21870;42.812;74.628;2024-01-07T03:34:27;16.10;;;6.45;;
35745;SDS011;21870;42.812;74.628;2024-01-07T03:36:53;22.00;;;6.63;;
35745;SDS011;21870;42.812;74.628;2024-01-07T03:39:19;9.85;;;4.68;;
35745;SDS011;21870;42.812;74.628;2024-01-07T03:41:45;16.70;;;5.57;;
35745;SDS011;21870;42.812;74.628;2024-01-07T03:44:11;16.10;;;5.35;;
35745;SDS011;21870;42.812;74.628;2024-01-07T03:46:37;12.82;;;4.85;;
35745;SDS011;21870;42.812;74.628;2024-01-07T03:49:03;11.15;;;4.93;;
35745;SDS011;21870;42.812;74.628;2024-01-07T03:51:29;11.35;;;4.75;;
35745;SDS011;21870;42.812;74.628;2024-01-07T03:53:55;8.80;;;6.35;;
35745;SDS011;21870;42.812;74.628;2024-01-07T03:56:21;13.13;;;6.38;;
35745;SDS011;21870;42.812;74.628;2024-01-07T03:58:47;12.18;;;5.60;;
35745;SDS011;21870;42.812;74.628;2024-01-07T04:01:16;9.95;;;5.65;;
35745;SDS011;21870;42.812;74.628;2024-01-07T04:03:43;17.58;;;7.00;;
35745;SDS011;21870;42.812;74.628;2024-01-07T04:06:09;23.48;;;7.35;;
35745;SDS011;21870;42.812;74.628;2024-01-07T04:08:35;17.90;;;6.03;;
35745;SDS011;21870;42.812;74.628;2024-01-07T04:11:04;9.68;;;5.68;;
35745;SDS011;21870;42.812;74.628;2024-01-07T04:13:30;28.00;;;7.07;;
35745;SDS011;21870;42.812;74.628;2024-01-07T04:15:56;24.40;;;7.72;;
35745;SDS011;21870;42.812;74.628;2024-01-07T04:18:21;18.88;;;6.70;;
35745;SDS011;21870;42.812;74.628;2024-01-07T04:20:47;16.38;;;6.18;;
35745;SDS011;21870;42.812;74.628;2024-01-07T04:23:13;10.10;;;4.53;;
35745;SDS011;21870;42.812;74.628;2024-01-07T04:25:40;10.35;;;4.60;;
35745;SDS011;21870;42.812;74.628;2024-01-07T04:28:07;13.10;;;4.28;;
35745;SDS011;21870;42.812;74.628;2024-01-07T04:30:34;18.75;;;6.47;;
35745;SDS011;21870;42.812;74.628;2024-01-07T04:33:01;14.05;;;6.57;;
35745;SDS011;21870;42.812;74.628;2024-01-07T04:35:27;13.85;;;5.55;;
35745;SDS011;21870;42.812;74.628;2024-01-07T04:37:52;13.02;;;6.35;;
35745;SDS011;21870;42.812;74.628;2024-01-07T04:40:18;15.25;;;6.30;;
35745;SDS011;21870;42.812;74.628;2024-01-07T04:42:44;18.17;;;5.40;;
35745;SDS011;21870;42.812;74.628;2024-01-07T04:45:10;16.35;;;6.03;;
35745;SDS011;21870;42.812;74.628;2024-01-07T04:47:36;14.75;;;5.30;;
35745;SDS011;21870;42.812;74.628;2024-01-07T04:50:03;11.15;;;5.47;;
35745;SDS011;21870;42.812;74.628;2024-01-07T04:52:29;16.23;;;6.28;;
35745;SDS011;21870;42.812;74.628;2024-01-07T04:54:55;16.13;;;6.47;;
35745;SDS011;21870;42.812;74.628;2024-01-07T04:57:22;18.17;;;6.28;;
35745;SDS011;21870;42.812;74.628;2024-01-07T04:59:48;16.13;;;6.32;;
35745;SDS011;21870;42.812;74.628;2024-01-07T05:02:15;22.15;;;7.78;;
35745;SDS011;21870;42.812;74.628;2024-01-07T05:04:42;23.58;;;9.25;;
35745;SDS011;21870;42.812;74.628;2024-01-07T05:07:08;45.38;;;13.75;;
35745;SDS011;21870;42.812;74.628;2024-01-07T05:09:34;29.90;;;12.23;;
35745;SDS011;21870;42.812;74.628;2024-01-07T05:12:00;29.08;;;11.57;;
35745;SDS011;21870;42.812;74.628;2024-01-07T05:14:26;33.90;;;13.43;;
35745;SDS011;21870;42.812;74.628;2024-01-07T05:16:55;23.00;;;10.73;;
35745;SDS011;21870;42.812;74.628;2024-01-07T05:19:21;29.38;;;12.68;;
35745;SDS011;21870;42.812;74.628;2024-01-07T05:21:48;21.50;;;8.68;;
35745;SDS011;21870;42.812;74.628;2024-01-07T05:24:14;23.40;;;9.20;;
35745;SDS011;21870;42.812;74.628;2024-01-07T05:26:43;18.90;;;8.93;;
35745;SDS011;21870;42.812;74.628;2024-01-07T05:29:10;19.52;;;8.75;;
35745;SDS011;21870;42.812;74.628;2024-01-07T05:31:39;24.10;;;8.48;;
35745;SDS011;21870;42.812;74.628;2024-01-07T05:34:05;17.50;;;9.23;;
35745;SDS011;21870;42.812;74.628;2024-01-07T05:36:32;24.42;;;10.43;;
35745;SDS011;21870;42.812;74.628;2024-01-07T05:38:58;22.02;;;9.65;;
35745;SDS011;21870;42.812;74.628;2024-01-07T05:41:24;23.77;;;9.82;;
35745;SDS011;21870;42.812;74.628;2024-01-07T05:43:50;21.02;;;10.85;;
35745;SDS011;21870;42.812;74.628;2024-01-07T05:46:16;26.13;;;12.43;;
35745;SDS011;21870;42.812;74.628;2024-01-07T05:48:43;28.58;;;12.40;;
35745;SDS011;21870;42.812;74.628;2024-01-07T05:51:10;31.65;;;13.32;;
35745;SDS011;21870;42.812;74.628;2024-01-07T05:53:36;20.60;;;11.80;;
35745;SDS011;21870;42.812;74.628;2024-01-07T05:56:03;23.55;;;11.80;;
35745;SDS011;21870;42.812;74.628;2024-01-07T05:58:29;23.20;;;11.43;;
35745;SDS011;21870;42.812;74.628;2024-01-07T06:00:55;23.35;;;10.52;;
35745;SDS011;21870;42.812;74.628;2024-01-07T06:03:21;41.03;;;11.88;;
35745;SDS011;21870;42.812;74.628;2024-01-07T06:05:47;40.35;;;13.52;;
35745;SDS011;21870;42.812;74.628;2024-01-07T06:08:13;35.95;;;13.35;;
35745;SDS011;21870;42.812;74.628;2024-01-07T06:10:39;33.70;;;12.60;;
35745;SDS011;21870;42.812;74.628;2024-01-07T06:13:06;26.42;;;10.32;;
35745;SDS011;21870;42.812;74.628;2024-01-07T06:15:32;32.67;;;11.98;;
35745;SDS011;21870;42.812;74.628;2024-01-07T06:17:58;25.65;;;11.15;;
35745;SDS011;21870;42.812;74.628;2024-01-07T06:20:24;22.42;;;9.23;;
35745;SDS011;21870;42.812;74.628;2024-01-07T06:22:50;24.38;;;9.85;;
35745;SDS011;21870;42.812;74.628;2024-01-07T06:25:16;21.20;;;10.05;;
35745;SDS011;21870;42.812;74.628;2024-01-07T06:27:42;21.40;;;9.73;;
35745;SDS011;21870;42.812;74.628;2024-01-07T06:30:08;23.92;;;11.45;;
35745;SDS011;21870;42.812;74.628;2024-01-07T06:32:35;25.55;;;11.82;;
35745;SDS011;21870;42.812;74.628;2024-01-07T06:35:01;17.63;;;9.10;;
35745;SDS011;21870;42.812;74.628;2024-01-07T06:37:28;21.73;;;9.98;;
35745;SDS011;21870;42.812;74.628;2024-01-07T06:39:57;19.05;;;11.18;;
35745;SDS011;21870;42.812;74.628;2024-01-07T06:42:24;19.75;;;11.15;;
35745;SDS011;21870;42.812;74.628;2024-01-07T06:44:50;22.58;;;11.90;;
35745;SDS011;21870;42.812;74.628;2024-01-07T06:47:16;31.23;;;12.90;;
35745;SDS011;21870;42.812;74.628;2024-01-07T06:49:42;21.75;;;11.63;;
35745;SDS011;21870;42.812;74.628;2024-01-07T06:52:08;32.15;;;12.30;;
35745;SDS011;21870;42.812;74.628;2024-01-07T06:54:34;23.92;;;11.90;;
35745;SDS011;21870;42.812;74.628;2024-01-07T06:57:00;24.83;;;9.88;;
35745;SDS011;21870;42.812;74.628;2024-01-07T06:59:27;19.38;;;9.98;;
35745;SDS011;21870;42.812;74.628;2024-01-07T07:01:53;17.40;;;8.13;;
35745;SDS011;21870;42.812;74.628;2024-01-07T07:04:21;21.63;;;8.75;;
35745;SDS011;21870;42.812;74.628;2024-01-07T07:06:49;14.15;;;7.45;;
35745;SDS011;21870;42.812;74.628;2024-01-07T07:09:18;15.77;;;8.00;;
35745;SDS011;21870;42.812;74.628;2024-01-07T07:11:44;21.40;;;9.55;;
35745;SDS011;21870;42.812;74.628;2024-01-07T07:14:10;17.17;;;7.30;;
35745;SDS011;21870;42.812;74.628;2024-01-07T07:16:36;16.92;;;7.00;;
35745;SDS011;21870;42.812;74.628;2024-01-07T07:19:02;23.08;;;8.23;;
35745;SDS011;21870;42.812;74.628;2024-01-07T07:21:28;20.95;;;7.72;;
35745;SDS011;21870;42.812;74.628;2024-01-07T07:23:54;27.30;;;8.98;;
35745;SDS011;21870;42.812;74.628;2024-01-07T07:26:20;23.30;;;9.05;;
35745;SDS011;21870;42.812;74.628;2024-01-07T07:28:46;23.73;;;9.80;;
35745;SDS011;21870;42.812;74.628;2024-01-07T07:31:12;25.00;;;9.15;;
35745;SDS011;21870;42.812;74.628;2024-01-07T07:33:39;16.92;;;9.32;;
35745;SDS011;21870;42.812;74.628;2024-01-07T07:36:05;20.55;;;10.32;;
35745;SDS011;21870;42.812;74.628;2024-01-07T07:38:32;19.00;;;11.93;;
35745;SDS011;21870;42.812;74.628;2024-01-07T07:40:58;18.27;;;9.45;;
35745;SDS011;21870;42.812;74.628;2024-01-07T07:43:25;18.70;;;10.50;;
35745;SDS011;21870;42.812;74.628;2024-01-07T07:45:51;20.27;;;11.02;;
35745;SDS011;21870;42.812;74.628;2024-01-07T07:48:20;24.25;;;9.82;;
35745;SDS011;21870;42.812;74.628;2024-01-07T07:50:47;15.25;;;8.85;;
35745;SDS011;21870;42.812;74.628;2024-01-07T07:53:14;21.15;;;9.55;;
35745;SDS011;21870;42.812;74.628;2024-01-07T07:55:40;21.42;;;8.68;;
35745;SDS011;21870;42.812;74.628;2024-01-07T07:58:06;12.02;;;6.93;;
35745;SDS011;21870;42.812;74.628;2024-01-07T08:00:33;17.13;;;6.40;;
35745;SDS011;21870;42.812;74.628;2024-01-07T08:02:59;13.77;;;5.85;;
35745;SDS011;21870;42.812;74.628;2024-01-07T08:05:25;16.27;;;6.80;;
35745;SDS011;21870;42.812;74.628;2024-01-07T08:07:51;13.15;;;6.22;;
35745;SDS011;21870;42.812;74.628;2024-01-07T08:10:17;13.95;;;6.25;;
35745;SDS011;21870;42.812;74.628;2024-01-07T08:12:43;16.40;;;6.50;;
35745;SDS011;21870;42.812;74.628;2024-01-07T08:15:12;14.07;;;6.53;;
35745;SDS011;21870;42.812;74.628;2024-01-07T08:17:38;22.30;;;6.22;;
35745;SDS011;21870;42.812;74.628;2024-01-07T08:20:04;21.38;;;7.50;;
35745;SDS011;21870;42.812;74.628;2024-01-07T08:22:31;40.75;;;10.40;;
35745;SDS011;21870;42.812;74.628;2024-01-07T08:24:57;38.10;;;9.98;;
35745;SDS011;21870;42.812;74.628;2024-01-07T08:27:23;22.63;;;7.88;;
35745;SDS011;21870;42.812;74.628;2024-01-07T08:29:49;34.30;;;9.43;;
35745;SDS011;21870;42.812;74.628;2024-01-07T08:32:15;34.75;;;9.73;;
35745;SDS011;21870;42.812;74.628;2024-01-07T08:34:41;22.73;;;9.57;;
35745;SDS011;21870;42.812;74.628;2024-01-07T08:37:07;27.85;;;8.98;;
35745;SDS011;21870;42.812;74.628;2024-01-07T08:39:34;21.27;;;7.88;;
35745;SDS011;21870;42.812;74.628;2024-01-07T08:42:00;21.00;;;7.68;;
35745;SDS011;21870;42.812;74.628;2024-01-07T08:44:26;26.25;;;7.25;;
35745;SDS011;21870;42.812;74.628;2024-01-07T08:46:53;22.17;;;8.05;;
35745;SDS011;21870;42.812;74.628;2024-01-07T08:49:19;22.70;;;8.13;;
35745;SDS011;21870;42.812;74.628;2024-01-07T08:51:45;31.00;;;8.13;;
35745;SDS011;21870;42.812;74.628;2024-01-07T08:54:11;21.83;;;7.43;;
35745;SDS011;21870;42.812;74.628;2024-01-07T08:56:37;29.77;;;8.68;;
35745;SDS011;21870;42.812;74.628;2024-01-07T08:59:04;18.65;;;7.50;;
35745;SDS011;21870;42.812;74.628;2024-01-07T09:01:30;13.18;;;7.50;;
35745;SDS011;21870;42.812;74.628;2024-01-07T09:03:56;18.77;;;7.00;;
35745;SDS011;21870;42.812;74.628;2024-01-07T09:06:22;56.70;;;43.72;;
35745;SDS011;21870;42.812;74.628;2024-01-07T09:08:48;25.00;;;9.30;;
35745;SDS011;21870;42.812;74.628;2024-01-07T09:11:14;24.02;;;8.68;;
35745;SDS011;21870;42.812;74.628;2024-01-07T09:13:43;24.48;;;9.35;;
35745;SDS011;21870;42.812;74.628;2024-01-07T09:16:09;28.17;;;9.35;;
35745;SDS011;21870;42.812;74.628;2024-01-07T09:18:36;37.80;;;10.32;;
35745;SDS011;21870;42.812;74.628;2024-01-07T09:21:03;38.95;;;11.07;;
35745;SDS011;21870;42.812;74.628;2024-01-07T09:23:29;29.42;;;10.63;;
35745;SDS011;21870;42.812;74.628;2024-01-07T09:25:55;41.67;;;12.52;;
35745;SDS011;21870;42.812;74.628;2024-01-07T09:28:21;26.42;;;11.82;;
35745;SDS011;21870;42.812;74.628;2024-01-07T09:30:47;27.15;;;12.73;;
35745;SDS011;21870;42.812;74.628;2024-01-07T09:33:13;31.40;;;12.27;;
35745;SDS011;21870;42.812;74.628;2024-01-07T09:35:40;33.88;;;12.93;;
35745;SDS011;21870;42.812;74.628;2024-01-07T09:38:06;35.70;;;14.55;;
35745;SDS011;21870;42.812;74.628;2024-01-07T09:40:32;44.60;;;16.80;;
35745;SDS011;21870;42.812;74.628;2024-01-07T09:42:58;61.63;;;33.58;;
35745;SDS011;21870;42.812;74.628;2024-01-07T09:45:24;89.00;;;42.47;;
35745;SDS011;21870;42.812;74.628;2024-01-07T09:47:51;78.28;;;45.40;;
35745;SDS011;21870;42.812;74.628;2024-01-07T09:50:17;131.20;;;50.80;;
35745;SDS011;21870;42.812;74.628;2024-01-07T09:52:43;72.43;;;48.80;;
35745;SDS011;21870;42.812;74.628;2024-01-07T09:55:12;82.75;;;52.03;;
35745;SDS011;21870;42.812;74.628;2024-01-07T09:57:44;90.65;;;51.50;;
35745;SDS011;21870;42.812;74.628;2024-01-07T10:00:10;86.13;;;52.22;;
35745;SDS011;21870;42.812;74.628;2024-01-07T10:02:38;79.95;;;52.13;;
35745;SDS011;21870;42.812;74.628;2024-01-07T10:05:06;94.72;;;54.38;;
35745;SDS011;21870;42.812;74.628;2024-01-07T10:07:35;111.57;;;70.88;;
35745;SDS011;21870;42.812;74.628;2024-01-07T10:10:17;82.00;;;56.63;;
35745;SDS011;21870;42.812;74.628;2024-01-07T10:12:44;104.53;;;59.08;;
35745;SDS011;21870;42.812;74.628;2024-01-07T10:15:11;93.25;;;56.65;;
35745;SDS011;21870;42.812;74.628;2024-01-07T10:17:39;79.20;;;54.65;;
35745;SDS011;21870;42.812;74.628;2024-01-07T10:20:10;102.03;;;54.85;;
35745;SDS011;21870;42.812;74.628;2024-01-07T10:22:38;89.90;;;54.63;;
35745;SDS011;21870;42.812;74.628;2024-01-07T10:25:05;87.93;;;50.55;;
35745;SDS011;21870;42.812;74.628;2024-01-07T10:27:37;94.80;;;56.13;;
35745;SDS011;21870;42.812;74.628;2024-01-07T10:30:03;93.13;;;57.50;;
35745;SDS011;21870;42.812;74.628;2024-01-07T10:32:30;93.85;;;59.10;;
35745;SDS011;21870;42.812;74.628;2024-01-07T10:34:57;110.07;;;61.45;;
35745;SDS011;21870;42.812;74.628;2024-01-07T10:37:31;152.50;;;67.85;;
35745;SDS011;21870;42.812;74.628;2024-01-07T10:39:58;171.57;;;67.20;;
35745;SDS011;21870;42.812;74.628;2024-01-07T10:42:31;110.03;;;62.72;;
35745;SDS011;21870;42.812;74.628;2024-01-07T10:44:58;126.55;;;62.80;;
35745;SDS011;21870;42.812;74.628;2024-01-07T10:47:27;116.47;;;61.33;;
35745;SDS011;21870;42.812;74.628;2024-01-07T10:49:56;108.50;;;60.60;;
35745;SDS011;21870;42.812;74.628;2024-01-07T10:52:25;107.72;;;60.63;;
35745;SDS011;21870;42.812;74.628;2024-01-07T10:54:53;144.80;;;64.55;;
35745;SDS011;21870;42.812;74.628;2024-01-07T11:00:07;56.80;;;35.08;;
35745;SDS011;21870;42.812;74.628;2024-01-07T11:02:37;44.67;;;27.52;;
35745;SDS011;21870;42.812;74.628;2024-01-07T11:05:14;54.20;;;35.78;;
35745;SDS011;21870;42.812;74.628;2024-01-07T11:08:05;76.80;;;36.47;;
35745;SDS011;21870;42.812;74.628;2024-01-07T11:10:41;56.97;;;30.25;;
35745;SDS011;21870;42.812;74.628;2024-01-07T11:13:32;44.78;;;28.60;;
35745;SDS011;21870;42.812;74.628;2024-01-07T11:16:03;31.52;;;19.02;;
35745;SDS011;21870;42.812;74.628;2024-01-07T11:18:31;49.92;;;29.70;;
35745;SDS011;21870;42.812;74.628;2024-01-07T11:20:59;62.20;;;36.72;;
35745;SDS011;21870;42.812;74.628;2024-01-07T11:23:36;55.33;;;37.45;;
35745;SDS011;21870;42.812;74.628;2024-01-07T11:26:08;77.53;;;49.65;;
35745;SDS011;21870;42.812;74.628;2024-01-07T11:34:10;97.93;;;69.10;;
35745;SDS011;21870;42.812;74.628;2024-01-07T11:36:56;105.35;;;76.07;;
35745;SDS011;21870;42.812;74.628;2024-01-07T11:39:22;104.10;;;79.43;;
35745;SDS011;21870;42.812;74.628;2024-01-07T11:41:48;109.15;;;83.38;;
35745;SDS011;21870;42.812;74.628;2024-01-07T11:44:15;129.05;;;84.82;;
35745;SDS011;21870;42.812;74.628;2024-01-07T11:46:42;108.90;;;81.00;;
35745;SDS011;21870;42.812;74.628;2024-01-07T11:49:08;116.63;;;81.00;;
35745;SDS011;21870;42.812;74.628;2024-01-07T11:51:34;124.65;;;82.93;;
35745;SDS011;21870;42.812;74.628;2024-01-07T11:54:02;113.07;;;78.70;;
35745;SDS011;21870;42.812;74.628;2024-01-07T11:56:29;111.53;;;78.88;;
35745;SDS011;21870;42.812;74.628;2024-01-07T11:58:55;115.80;;;75.22;;
35745;SDS011;21870;42.812;74.628;2024-01-07T12:01:21;102.13;;;74.18;;
35745;SDS011;21870;42.812;74.628;2024-01-07T12:03:48;98.93;;;72.07;;
35745;SDS011;21870;42.812;74.628;2024-01-07T12:06:15;83.22;;;59.67;;
35745;SDS011;21870;42.812;74.628;2024-01-07T12:08:41;75.55;;;54.45;;
35745;SDS011;21870;42.812;74.628;2024-01-07T12:11:11;88.57;;;61.15;;
35745;SDS011;21870;42.812;74.628;2024-01-07T12:13:38;90.60;;;58.97;;
35745;SDS011;21870;42.812;74.628;2024-01-07T12:16:05;79.78;;;58.00;;
35745;SDS011;21870;42.812;74.628;2024-01-07T12:18:32;88.57;;;56.30;;
35745;SDS011;21870;42.812;74.628;2024-01-07T12:20:58;81.05;;;54.38;;
35745;SDS011;21870;42.812;74.628;2024-01-07T12:23:25;66.97;;;46.08;;
35745;SDS011;21870;42.812;74.628;2024-01-07T12:25:52;68.53;;;47.22;;
35745;SDS011;21870;42.812;74.628;2024-01-07T12:28:18;36.40;;;27.05;;
35745;SDS011;21870;42.812;74.628;2024-01-07T12:30:45;49.95;;;30.33;;
35745;SDS011;21870;42.812;74.628;2024-01-07T12:33:15;34.30;;;26.45;;
35745;SDS011;21870;42.812;74.628;2024-01-07T12:35:44;38.63;;;27.52;;
35745;SDS011;21870;42.812;74.628;2024-01-07T12:38:11;37.15;;;25.88;;
35745;SDS011;21870;42.812;74.628;2024-01-07T12:40:37;45.80;;;29.13;;
35745;SDS011;21870;42.812;74.628;2024-01-07T12:43:04;48.88;;;35.03;;
35745;SDS011;21870;42.812;74.628;2024-01-07T12:45:33;45.35;;;33.53;;
35745;SDS011;21870;42.812;74.628;2024-01-07T12:47:59;40.72;;;30.73;;
35745;SDS011;21870;42.812;74.628;2024-01-07T12:50:28;42.15;;;30.15;;
35745;SDS011;21870;42.812;74.628;2024-01-07T12:52:56;49.42;;;32.72;;
35745;SDS011;21870;42.812;74.628;2024-01-07T12:55:22;38.00;;;27.60;;
35745;SDS011;21870;42.812;74.628;2024-01-07T12:57:50;51.00;;;27.48;;
35745;SDS011;21870;42.812;74.628;2024-01-07T13:00:17;47.20;;;28.48;;
35745;SDS011;21870;42.812;74.628;2024-01-07T13:02:43;50.95;;;29.95;;
35745;SDS011;21870;42.812;74.628;2024-01-07T13:05:09;44.90;;;30.92;;
35745;SDS011;21870;42.812;74.628;2024-01-07T13:07:35;42.28;;;28.23;;
35745;SDS011;21870;42.812;74.628;2024-01-07T13:10:01;34.92;;;22.52;;
35745;SDS011;21870;42.812;74.628;2024-01-07T13:12:27;35.45;;;21.73;;
35745;SDS011;21870;42.812;74.628;2024-01-07T13:14:53;35.35;;;20.23;;
35745;SDS011;21870;42.812;74.628;2024-01-07T13:17:19;32.20;;;18.80;;
35745;SDS011;21870;42.812;74.628;2024-01-07T13:19:45;32.55;;;20.45;;
35745;SDS011;21870;42.812;74.628;2024-01-07T13:22:11;35.67;;;21.13;;
35745;SDS011;21870;42.812;74.628;2024-01-07T13:24:38;36.55;;;20.25;;
35745;SDS011;21870;42.812;74.628;2024-01-07T13:27:05;27.98;;;18.50;;
35745;SDS011;21870;42.812;74.628;2024-01-07T13:29:31;30.35;;;18.92;;
35745;SDS011;21870;42.812;74.628;2024-01-07T13:31:57;27.25;;;19.38;;
35745;SDS011;21870;42.812;74.628;2024-01-07T13:34:23;30.98;;;20.48;;
35745;SDS011;21870;42.812;74.628;2024-01-07T13:36:49;31.85;;;21.25;;
35745;SDS011;21870;42.812;74.628;2024-01-07T13:39:16;36.33;;;25.38;;
35745;SDS011;21870;42.812;74.628;2024-01-07T13:41:42;37.42;;;24.10;;
35745;SDS011;21870;42.812;74.628;2024-01-07T13:44:09;39.88;;;23.83;;
35745;SDS011;21870;42.812;74.628;2024-01-07T13:46:45;40.50;;;23.55;;
35745;SDS011;21870;42.812;74.628;2024-01-07T13:49:14;36.53;;;21.60;;
35745;SDS011;21870;42.812;74.628;2024-01-07T13:51:43;36.83;;;24.77;;
35745;SDS011;21870;42.812;74.628;2024-01-07T13:54:09;38.15;;;23.95;;
35745;SDS011;21870;42.812;74.628;2024-01-07T13:56:38;31.83;;;22.10;;
35745;SDS011;21870;42.812;74.628;2024-01-07T13:59:07;29.83;;;20.50;;
35745;SDS011;21870;42.812;74.628;2024-01-07T14:01:36;29.33;;;19.67;;
35745;SDS011;21870;42.812;74.628;2024-01-07T14:04:03;24.95;;;13.82;;
35745;SDS011;21870;42.812;74.628;2024-01-07T14:06:29;28.70;;;12.75;;
35745;SDS011;21870;42.812;74.628;2024-01-07T14:08:55;21.45;;;12.52;;
35745;SDS011;21870;42.812;74.628;2024-01-07T14:11:21;28.90;;;12.98;;
35745;SDS011;21870;42.812;74.628;2024-01-07T14:13:47;22.27;;;12.30;;
35745;SDS011;21870;42.812;74.628;2024-01-07T14:16:14;25.52;;;11.15;;
35745;SDS011;21870;42.812;74.628;2024-01-07T14:18:40;26.98;;;10.73;;
35745;SDS011;21870;42.812;74.628;2024-01-07T14:21:06;29.60;;;11.13;;
35745;SDS011;21870;42.812;74.628;2024-01-07T14:23:33;27.65;;;12.95;;